Terminal Aerodrome Forecast
Issued by NWS

Home | Current Version | Previous Version | Text Only | Print | Product List | Glossary On
Versions: 1 2 3 4 5 6 7 8 9 10 11 12 13 14 15 16 17 18 19 20 21 22 23 24 25
000
FTUS45 KGJT 290520
TAFASE
TAF
KASE 290520Z 2906/3006 12009KT 6SM -RA SCT070 OVC110
     FM290800 12008KT P6SM VCSH SCT080 BKN120
     FM291200 VRB04KT P6SM VCSH BKN150
     FM291800 04004KT P6SM VCTS SCT080CB BKN120
      TEMPO 2921/2924 3SM -TSRA SCT040CB
     FM300000 06006KT P6SM -SHRA OVC050=

USA.gov is the U.S. government's official web portal to all federal, state and local government web resources and services.